createdAt,value
2022-09-10T00:02:07.587Z,13.60
2022-09-10T00:04:34.758Z,12.98
2022-09-10T00:07:01.876Z,13.85
2022-09-10T00:09:29.124Z,13.00
2022-09-10T00:11:56.722Z,12.70
2022-09-10T00:14:24.599Z,12.75
2022-09-10T00:16:51.898Z,11.57
2022-09-10T00:19:19.621Z,12.38
2022-09-10T00:21:46.628Z,12.45
2022-09-10T00:24:13.607Z,12.88
2022-09-10T00:26:40.658Z,11.82
2022-09-10T00:29:10.923Z,12.93
2022-09-10T00:31:38.768Z,12.27
2022-09-10T00:34:06.835Z,12.43
2022-09-10T00:36:39.734Z,12.32
2022-09-10T00:39:13.397Z,12.98
2022-09-10T00:41:42.280Z,12.80
2022-09-10T00:44:40.502Z,12.15
2022-09-10T00:47:14.641Z,12.90
2022-09-10T00:49:45.374Z,12.68
2022-09-10T00:52:12.961Z,12.90
2022-09-10T00:54:42.141Z,12.70
2022-09-10T00:57:13.630Z,12.25
2022-09-10T00:59:46.685Z,12.75
2022-09-10T01:02:15.049Z,13.38
2022-09-10T01:04:43.182Z,13.40
2022-09-10T01:07:11.508Z,12.98
2022-09-10T01:09:40.502Z,12.27
2022-09-10T01:12:22.177Z,13.00
2022-09-10T01:14:55.047Z,12.48
2022-09-10T01:17:46.237Z,12.20
2022-09-10T01:20:19.971Z,12.35
2022-09-10T01:23:23.996Z,12.15
2022-09-10T01:26:25.904Z,12.05
2022-09-10T01:29:20.725Z,12.30
2022-09-10T01:31:59.471Z,12.18
2022-09-10T01:35:01.601Z,11.70
2022-09-10T01:37:32.994Z,11.05
2022-09-10T01:40:02.653Z,11.60
2022-09-10T01:42:32.694Z,12.00
2022-09-10T01:45:00.078Z,11.05
2022-09-10T01:48:09.901Z,10.90
2022-09-10T01:50:57.228Z,11.15
2022-09-10T01:53:45.733Z,11.80
2022-09-10T01:56:18.491Z,10.35
2022-09-10T01:58:46.968Z,10.68
2022-09-10T02:01:24.168Z,10.68
2022-09-10T02:03:56.916Z,11.40
2022-09-10T02:06:29.672Z,11.20
2022-09-10T02:09:00.641Z,11.23
2022-09-10T02:11:29.074Z,11.32
2022-09-10T02:13:59.549Z,11.23
2022-09-10T02:16:37.905Z,11.50
2022-09-10T02:19:06.485Z,11.73
2022-09-10T02:21:34.102Z,11.95
2022-09-10T02:24:10.078Z,12.27
2022-09-10T02:26:40.293Z,11.10
2022-09-10T02:29:08.306Z,10.93
2022-09-10T02:31:35.904Z,11.55
2022-09-10T02:34:05.654Z,12.50
2022-09-10T02:36:33.277Z,12.20
2022-09-10T02:39:00.543Z,11.70
2022-09-10T02:41:32.635Z,11.35
2022-09-10T02:44:01.863Z,10.45
2022-09-10T02:46:29.676Z,11.38
2022-09-10T02:48:56.908Z,10.70
2022-09-10T02:51:24.476Z,11.52
2022-09-10T02:53:52.273Z,11.25
2022-09-10T02:56:20.016Z,11.90
2022-09-10T02:58:47.006Z,11.25
2022-09-10T03:01:20.658Z,11.10
2022-09-10T03:03:56.856Z,12.63
2022-09-10T03:06:25.315Z,11.95
2022-09-10T03:08:52.364Z,10.85
2022-09-10T03:11:22.655Z,11.25
2022-09-10T03:13:50.907Z,11.57
2022-09-10T03:16:18.552Z,11.55
2022-09-10T03:18:45.828Z,11.60
2022-09-10T03:21:18.916Z,11.77
2022-09-10T03:23:49.537Z,11.98
2022-09-10T03:26:22.659Z,11.75
2022-09-10T03:28:50.239Z,12.85
2022-09-10T03:31:19.765Z,11.53
2022-09-10T03:33:49.310Z,12.40
2022-09-10T03:36:18.056Z,11.68
2022-09-10T03:38:47.585Z,11.73
2022-09-10T03:41:14.653Z,10.45
2022-09-10T03:43:41.652Z,10.50
2022-09-10T03:46:12.115Z,8.85
2022-09-10T03:48:43.725Z,10.68
2022-09-10T03:51:11.040Z,10.32
2022-09-10T03:53:39.096Z,11.13
2022-09-10T03:56:08.722Z,11.35
2022-09-10T03:58:36.176Z,10.25
2022-09-10T04:01:04.785Z,11.52
2022-09-10T04:03:35.179Z,11.80
2022-09-10T04:06:02.084Z,11.73
2022-09-10T04:08:28.995Z,12.63
2022-09-10T04:11:02.082Z,12.35
2022-09-10T04:13:29.167Z,13.18
2022-09-10T04:15:56.416Z,13.18
2022-09-10T04:18:26.581Z,14.38
2022-09-10T04:20:53.758Z,14.57
2022-09-10T04:23:20.805Z,14.02
2022-09-10T04:25:49.667Z,14.10
2022-09-10T04:28:17.128Z,14.68
2022-09-10T04:30:47.198Z,14.07
2022-09-10T04:33:15.224Z,13.65
2022-09-10T04:35:43.296Z,13.70
2022-09-10T04:38:12.061Z,13.90
2022-09-10T04:40:40.072Z,14.82
2022-09-10T04:43:08.883Z,14.95
2022-09-10T04:45:39.431Z,14.07
2022-09-10T04:48:07.334Z,13.77
2022-09-10T04:50:35.860Z,12.93
2022-09-10T04:53:23.130Z,11.80
2022-09-10T04:55:52.384Z,11.88
2022-09-10T04:58:19.483Z,10.90
2022-09-10T05:00:46.647Z,9.98
2022-09-10T05:03:14.741Z,8.60
2022-09-10T05:05:44.360Z,8.60
2022-09-10T05:08:12.863Z,6.63
2022-09-10T05:10:41.341Z,6.88
2022-09-10T05:13:09.126Z,7.10
2022-09-10T05:15:36.007Z,7.75
2022-09-10T05:18:05.005Z,6.95
2022-09-10T05:20:35.813Z,7.07
2022-09-10T05:23:02.783Z,6.75
2022-09-10T05:25:30.004Z,6.57
2022-09-10T05:27:58.636Z,7.20
2022-09-10T05:30:26.051Z,6.55
2022-09-10T05:32:53.680Z,6.60
2022-09-10T05:35:21.738Z,6.13
2022-09-10T05:37:48.856Z,6.10
2022-09-10T05:40:16.327Z,6.15
2022-09-10T05:42:44.149Z,6.10
2022-09-10T05:45:11.152Z,5.82
2022-09-10T05:47:38.152Z,5.75
2022-09-10T05:50:07.157Z,5.63
2022-09-10T05:52:34.612Z,5.30
2022-09-10T05:57:33.213Z,5.25
2022-09-10T06:00:01.325Z,5.00
2022-09-10T06:02:30.468Z,5.45
2022-09-10T06:04:58.857Z,4.60
2022-09-10T06:07:30.848Z,4.78
2022-09-10T06:09:57.906Z,4.05
2022-09-10T06:12:34.495Z,3.70
2022-09-10T06:15:03.764Z,3.10
2022-09-10T06:17:31.002Z,2.67
2022-09-10T06:19:58.028Z,2.65
2022-09-10T06:22:25.142Z,2.80
2022-09-10T06:24:53.855Z,2.60
2022-09-10T06:27:23.320Z,2.55
2022-09-10T06:29:51.639Z,2.55
2022-09-10T06:32:19.207Z,2.00
2022-09-10T06:34:47.042Z,2.08
2022-09-10T06:37:14.607Z,2.10
2022-09-10T06:39:41.833Z,1.75
2022-09-10T06:42:08.857Z,2.00
2022-09-10T06:44:54.219Z,2.03
2022-09-10T06:48:32.712Z,1.85
2022-09-10T06:50:37.675Z,1.70
2022-09-10T06:53:04.911Z,1.70
2022-09-10T06:55:34.846Z,1.70
2022-09-10T07:00:32.316Z,1.40
2022-09-10T07:03:01.164Z,1.55
2022-09-10T07:05:29.477Z,1.90
2022-09-10T07:07:57.662Z,1.50
2022-09-10T07:10:24.839Z,1.80
2022-09-10T07:12:52.094Z,1.75
2022-09-10T07:15:20.519Z,1.70
2022-09-10T07:17:47.479Z,1.65
2022-09-10T07:20:15.037Z,1.30
2022-09-10T07:22:46.784Z,1.58
2022-09-10T07:25:15.138Z,1.60
2022-09-10T07:28:03.878Z,1.67
2022-09-10T07:30:35.404Z,1.40
2022-09-10T07:33:02.558Z,1.60
2022-09-10T07:35:31.220Z,1.70
2022-09-10T07:38:00.239Z,1.35
2022-09-10T07:40:28.320Z,1.40
2022-09-10T07:42:56.448Z,1.25
2022-09-10T07:45:23.437Z,1.50
2022-09-10T07:47:51.045Z,1.58
2022-09-10T07:50:19.343Z,1.63
2022-09-10T07:52:49.908Z,1.20
2022-09-10T07:55:18.287Z,1.20
2022-09-10T07:57:45.645Z,1.10
2022-09-10T08:00:15.206Z,1.15
2022-09-10T08:02:43.256Z,1.35
2022-09-10T08:05:16.985Z,1.10
2022-09-10T08:07:45.083Z,1.40
2022-09-10T08:10:12.381Z,1.33
2022-09-10T08:12:41.261Z,1.20
2022-09-10T08:15:10.832Z,1.65
2022-09-10T08:17:40.226Z,1.65
2022-09-10T08:20:10.085Z,1.50
2022-09-10T08:22:40.033Z,1.70
2022-09-10T08:25:08.344Z,2.05
2022-09-10T08:27:38.215Z,1.70
2022-09-10T08:30:09.019Z,1.70
2022-09-10T08:32:37.513Z,2.63
2022-09-10T08:35:05.951Z,2.28
2022-09-10T08:37:34.267Z,1.85
2022-09-10T08:40:03.315Z,2.03
2022-09-10T08:42:40.090Z,1.63
2022-09-10T08:45:31.735Z,2.03
2022-09-10T08:48:03.444Z,2.20
2022-09-10T08:50:38.357Z,2.17
2022-09-10T08:53:35.040Z,1.80
2022-09-10T08:56:15.136Z,2.30
2022-09-10T08:58:51.008Z,1.95
2022-09-10T09:01:26.971Z,2.17
2022-09-10T09:03:57.489Z,2.20
2022-09-10T09:06:50.612Z,2.17
2022-09-10T09:09:18.786Z,2.40
2022-09-10T09:11:57.722Z,2.53
2022-09-10T09:14:55.916Z,2.30
2022-09-10T09:17:51.766Z,2.20
2022-09-10T09:20:34.005Z,2.58
2022-09-10T09:23:19.605Z,2.20
2022-09-10T09:26:04.445Z,2.20
2022-09-10T09:28:46.959Z,2.47
2022-09-10T09:31:27.718Z,2.30
2022-09-10T09:34:07.071Z,2.00
2022-09-10T09:36:40.150Z,2.42
2022-09-10T09:39:53.029Z,2.30
2022-09-10T09:42:57.620Z,2.60
2022-09-10T09:45:44.156Z,2.40
2022-09-10T09:48:16.508Z,2.22
2022-09-10T09:50:49.017Z,2.10
2022-09-10T09:53:27.696Z,2.33
2022-09-10T09:55:57.115Z,3.10
2022-09-10T09:58:26.896Z,2.13
2022-09-10T10:01:03.897Z,2.23
2022-09-10T10:03:35.740Z,2.33
2022-09-10T10:06:11.158Z,2.80
2022-09-10T10:08:43.669Z,2.50
2022-09-10T10:11:14.212Z,2.95
2022-09-10T10:13:43.893Z,3.17
2022-09-10T10:16:37.750Z,2.33
2022-09-10T10:19:27.400Z,2.45
2022-09-10T10:21:54.761Z,2.90
2022-09-10T10:24:33.979Z,2.88
2022-09-10T10:27:01.026Z,2.30
2022-09-10T10:29:28.227Z,3.10
2022-09-10T10:31:56.331Z,2.95
2022-09-10T10:34:34.972Z,2.92
2022-09-10T10:37:13.649Z,3.08
2022-09-10T10:40:14.277Z,3.20
2022-09-10T10:42:47.782Z,3.15
2022-09-10T10:45:49.329Z,3.17
2022-09-10T10:48:19.178Z,3.40
2022-09-10T10:51:23.468Z,4.20
2022-09-10T10:54:15.186Z,3.15
2022-09-10T10:56:47.110Z,2.50
2022-09-10T10:59:39.706Z,3.03
2022-09-10T11:02:18.229Z,2.85
2022-09-10T11:04:51.765Z,3.50
2022-09-10T11:07:29.785Z,3.20
2022-09-10T11:10:11.516Z,3.38
2022-09-10T11:12:50.851Z,3.00
2022-09-10T11:15:37.160Z,3.30
2022-09-10T11:18:13.247Z,3.05
2022-09-10T11:20:56.263Z,3.42
2022-09-10T11:23:29.694Z,4.22
2022-09-10T11:26:12.768Z,3.58
2022-09-10T11:28:54.435Z,3.50
2022-09-10T11:31:53.724Z,3.45
2022-09-10T11:34:34.652Z,3.20
2022-09-10T11:37:40.322Z,3.50
2022-09-10T11:40:18.800Z,3.28
2022-09-10T11:42:52.693Z,3.25
2022-09-10T11:45:36.452Z,3.30
2022-09-10T11:48:18.524Z,3.58
2022-09-10T11:51:07.294Z,3.65
2022-09-10T11:53:37.074Z,3.28
2022-09-10T11:56:49.996Z,3.90
2022-09-10T11:59:35.406Z,3.78
2022-09-10T12:02:43.232Z,3.90
2022-09-10T12:05:40.732Z,3.72
2022-09-10T12:08:48.659Z,3.30
2022-09-10T12:11:47.995Z,2.90
2022-09-10T12:14:20.023Z,2.95
2022-09-10T12:16:56.121Z,4.75
2022-09-10T12:19:29.788Z,2.90
2022-09-10T12:22:03.980Z,2.83
2022-09-10T12:24:34.279Z,2.75
2022-09-10T12:27:02.820Z,3.20
2022-09-10T12:29:34.407Z,3.25
2022-09-10T12:32:19.544Z,2.92
2022-09-10T12:34:48.524Z,2.72
2022-09-10T12:37:33.438Z,2.85
2022-09-10T12:40:28.265Z,3.15
2022-09-10T12:43:44.051Z,3.40
2022-09-10T12:46:12.670Z,3.00
2022-09-10T12:49:02.791Z,3.08
2022-09-10T12:51:46.334Z,2.60
2022-09-10T12:54:27.750Z,3.13
2022-09-10T12:57:21.381Z,2.75
2022-09-10T13:00:18.424Z,2.90
2022-09-10T13:02:53.331Z,2.92
2022-09-10T13:05:26.536Z,3.00
2022-09-10T13:08:08.586Z,3.47
2022-09-10T13:10:36.228Z,2.45
2022-09-10T13:13:07.038Z,2.85
2022-09-10T13:15:39.071Z,2.70
2022-09-10T13:18:25.606Z,2.55
2022-09-10T13:20:52.909Z,2.70
2022-09-10T13:23:22.149Z,3.08
2022-09-10T13:25:51.021Z,2.90
2022-09-10T13:28:36.975Z,2.80
2022-09-10T13:31:15.374Z,2.65
2022-09-10T13:33:52.178Z,3.05
2022-09-10T13:36:28.212Z,2.83
2022-09-10T13:38:57.603Z,2.65
2022-09-10T13:42:08.916Z,2.58
2022-09-10T13:45:23.746Z,2.65
2022-09-10T13:48:06.418Z,3.08
2022-09-10T13:50:40.844Z,2.67
2022-09-10T13:53:12.291Z,2.55
2022-09-10T13:55:48.921Z,5.68
2022-09-10T13:58:18.707Z,2.45
2022-09-10T14:00:58.559Z,2.53
2022-09-10T14:03:31.263Z,2.50
2022-09-10T14:06:10.651Z,2.40
2022-09-10T14:08:43.065Z,2.50
2022-09-10T14:11:12.884Z,2.85
2022-09-10T14:14:02.954Z,2.20
2022-09-10T14:16:41.380Z,2.90
2022-09-10T14:19:37.385Z,2.35
2022-09-10T14:22:09.450Z,2.28
2022-09-10T14:24:40.060Z,3.00
2022-09-10T14:27:23.210Z,2.67
2022-09-10T14:29:50.526Z,2.88
2022-09-10T14:32:30.936Z,2.45
2022-09-10T14:34:58.182Z,2.97
2022-09-10T14:37:36.979Z,2.13
2022-09-10T14:40:14.788Z,2.50
2022-09-10T14:42:41.983Z,2.33
2022-09-10T14:45:37.703Z,3.63
2022-09-10T14:48:05.775Z,2.38
2022-09-10T14:50:36.710Z,3.15
2022-09-10T14:53:03.626Z,2.83
2022-09-10T14:55:32.509Z,2.80
2022-09-10T14:57:59.978Z,3.47
2022-09-10T15:00:27.138Z,3.08
2022-09-10T15:02:57.387Z,3.03
2022-09-10T15:05:24.784Z,3.33
2022-09-10T15:07:51.737Z,3.45
2022-09-10T15:10:18.812Z,3.05
2022-09-10T15:12:49.920Z,2.70
2022-09-10T15:15:18.088Z,3.22
2022-09-10T15:17:45.335Z,3.20
2022-09-10T15:20:16.355Z,4.00
2022-09-10T15:22:43.832Z,2.92
2022-09-10T15:25:29.541Z,3.20
2022-09-10T15:27:56.750Z,3.50
2022-09-10T15:30:25.015Z,4.07
2022-09-10T15:32:54.429Z,4.50
2022-09-10T15:35:23.405Z,3.90
2022-09-10T15:37:51.337Z,5.13
2022-09-10T15:40:18.616Z,5.28
2022-09-10T15:42:46.002Z,5.40
2022-09-10T15:45:13.076Z,5.45
2022-09-10T15:47:41.970Z,5.28
2022-09-10T15:50:11.186Z,5.57
2022-09-10T15:52:38.740Z,6.03
2022-09-10T15:55:07.235Z,6.43
2022-09-10T15:57:36.001Z,6.20
2022-09-10T16:00:04.804Z,6.25
2022-09-10T16:02:32.089Z,6.97
2022-09-10T16:05:01.263Z,7.70
2022-09-10T16:07:30.367Z,7.65
2022-09-10T16:09:58.957Z,7.97
2022-09-10T16:12:27.535Z,6.82
2022-09-10T16:14:54.746Z,6.25
2022-09-10T16:17:21.954Z,5.10
2022-09-10T16:19:49.833Z,4.97
2022-09-10T16:22:20.567Z,4.68
2022-09-10T16:24:48.134Z,5.15
2022-09-10T16:27:17.617Z,5.28
2022-09-10T16:29:46.400Z,5.80
2022-09-10T16:32:13.652Z,5.20
2022-09-10T16:34:41.048Z,5.85
2022-09-10T16:37:08.708Z,5.68
2022-09-10T16:39:35.870Z,5.25
2022-09-10T16:42:03.068Z,6.60
2022-09-10T16:44:31.509Z,9.43
2022-09-10T16:46:59.468Z,7.45
2022-09-10T16:49:27.515Z,8.27
2022-09-10T16:51:54.861Z,6.28
2022-09-10T16:54:22.881Z,7.47
2022-09-10T16:56:50.533Z,5.53
2022-09-10T16:59:20.805Z,5.72
2022-09-10T17:01:49.680Z,5.25
2022-09-10T17:04:22.320Z,5.15
2022-09-10T17:06:52.195Z,4.90
2022-09-10T17:09:19.449Z,4.97
2022-09-10T17:11:46.521Z,5.85
2022-09-10T17:14:13.434Z,7.40
2022-09-10T17:16:43.896Z,7.57
2022-09-10T17:19:11.028Z,7.28
2022-09-10T17:21:40.276Z,6.00
2022-09-10T17:24:10.053Z,6.13
2022-09-10T17:26:37.805Z,5.97
2022-09-10T17:29:07.718Z,7.07
2022-09-10T17:31:35.957Z,5.83
2022-09-10T17:34:04.050Z,5.80
2022-09-10T17:36:33.084Z,7.07
2022-09-10T17:39:00.551Z,6.80
2022-09-10T17:41:29.136Z,6.55
2022-09-10T17:43:58.283Z,5.50
2022-09-10T17:46:26.705Z,6.15
2022-09-10T17:48:55.013Z,6.32
2022-09-10T17:51:24.951Z,6.55
2022-09-10T17:53:54.071Z,6.30
2022-09-10T17:56:22.644Z,6.88
2022-09-10T17:58:50.822Z,5.90
2022-09-10T18:01:26.946Z,6.18
2022-09-10T18:03:54.695Z,5.82
2022-09-10T18:06:24.553Z,6.65
2022-09-10T18:08:52.038Z,6.53
2022-09-10T18:11:22.752Z,5.45
2022-09-10T18:13:54.925Z,6.13
2022-09-10T18:16:24.590Z,7.28
2022-09-10T18:19:00.307Z,5.88
2022-09-10T18:21:31.980Z,7.70
2022-09-10T18:24:01.897Z,7.38
2022-09-10T18:26:33.051Z,6.68
2022-09-10T18:29:02.095Z,6.63
2022-09-10T18:31:34.931Z,6.22
2022-09-10T18:34:02.542Z,5.18
2022-09-10T18:36:31.538Z,6.18
2022-09-10T18:39:02.521Z,6.70
2022-09-10T18:41:32.258Z,22.23
2022-09-10T18:44:01.534Z,11.90
2022-09-10T18:46:31.367Z,11.77
2022-09-10T18:48:59.581Z,12.20
2022-09-10T18:51:28.206Z,11.65
2022-09-10T18:54:00.100Z,28.77
2022-09-10T18:56:30.221Z,8.52
2022-09-10T18:58:58.817Z,13.25
2022-09-10T19:01:27.881Z,12.75
2022-09-10T19:03:55.393Z,9.00
2022-09-10T19:06:24.702Z,19.77
2022-09-10T19:08:55.105Z,6.97
2022-09-10T19:11:24.504Z,10.63
2022-09-10T19:13:54.140Z,10.65
2022-09-10T19:16:24.746Z,24.25
2022-09-10T19:18:53.690Z,17.95
2022-09-10T19:21:21.817Z,12.45
2022-09-10T19:23:50.570Z,40.90
2022-09-10T19:26:19.305Z,22.50
2022-09-10T19:28:47.842Z,41.25
2022-09-10T19:31:17.083Z,21.08
2022-09-10T19:33:44.123Z,16.00
2022-09-10T19:36:13.672Z,13.80
2022-09-10T19:38:41.315Z,23.55
2022-09-10T19:41:14.341Z,22.33
2022-09-10T19:43:41.705Z,10.68
2022-09-10T19:46:12.943Z,13.48
2022-09-10T19:48:40.322Z,23.45
2022-09-10T19:51:10.500Z,16.23
2022-09-10T19:53:38.055Z,13.40
2022-09-10T19:56:06.378Z,14.20
2022-09-10T19:58:35.511Z,23.38
2022-09-10T20:01:10.684Z,22.00
2022-09-10T20:03:39.991Z,14.48
2022-09-10T20:06:08.787Z,13.88
2022-09-10T20:08:36.060Z,11.82
2022-09-10T20:11:05.982Z,23.83
2022-09-10T20:13:34.221Z,25.40
2022-09-10T20:16:02.723Z,16.92
2022-09-10T20:18:32.110Z,30.38
2022-09-10T20:21:12.208Z,25.50
2022-09-10T20:23:40.678Z,16.23
2022-09-10T20:26:12.649Z,16.20
2022-09-10T20:28:39.683Z,23.10
2022-09-10T20:31:09.082Z,17.05
2022-09-10T20:33:37.801Z,20.17
2022-09-10T20:36:08.356Z,18.52
2022-09-10T20:38:35.211Z,23.48
2022-09-10T20:41:02.250Z,20.63
2022-09-10T20:43:29.753Z,31.00
2022-09-10T20:45:57.565Z,21.58
2022-09-10T20:48:24.915Z,26.38
2022-09-10T20:50:56.281Z,20.45
2022-09-10T20:53:23.376Z,19.05
2022-09-10T20:55:50.543Z,17.42
2022-09-10T20:58:18.269Z,23.88
2022-09-10T21:00:45.540Z,36.08
2022-09-10T21:03:13.282Z,24.67
2022-09-10T21:05:40.428Z,23.60
2022-09-10T21:08:07.312Z,33.85
2022-09-10T21:10:37.625Z,26.08
2022-09-10T21:13:04.913Z,41.50
2022-09-10T21:15:32.093Z,18.25
2022-09-10T21:17:58.972Z,32.30
2022-09-10T21:20:25.891Z,20.90
2022-09-10T21:22:52.805Z,19.85
2022-09-10T21:25:19.727Z,31.42
2022-09-10T21:27:47.288Z,31.35
2022-09-10T21:30:14.307Z,24.48
2022-09-10T21:32:41.200Z,20.63
2022-09-10T21:35:08.716Z,38.38
2022-09-10T21:37:35.752Z,34.47
2022-09-10T21:40:03.369Z,28.80
2022-09-10T21:42:30.503Z,18.98
2022-09-10T21:44:57.378Z,17.55
2022-09-10T21:47:24.267Z,16.30
2022-09-10T21:49:51.126Z,16.58
2022-09-10T21:52:18.007Z,13.73
2022-09-10T21:54:44.858Z,19.02
2022-09-10T21:57:13.049Z,17.63
2022-09-10T21:59:41.661Z,16.98
2022-09-10T22:02:08.806Z,21.50
2022-09-10T22:04:35.749Z,18.25
2022-09-10T22:07:04.695Z,19.90
2022-09-10T22:09:32.254Z,21.05
2022-09-10T22:11:59.229Z,15.02
2022-09-10T22:14:26.178Z,19.48
2022-09-10T22:16:53.887Z,15.07
2022-09-10T22:19:25.160Z,13.50
2022-09-10T22:21:54.366Z,13.95
2022-09-10T22:24:22.301Z,12.63
2022-09-10T22:26:49.276Z,14.18
2022-09-10T22:29:20.452Z,20.63
2022-09-10T22:31:48.555Z,19.55
2022-09-10T22:34:16.829Z,19.40
2022-09-10T22:36:45.184Z,16.75
2022-09-10T22:39:15.136Z,16.30
2022-09-10T22:41:43.040Z,15.30
2022-09-10T22:44:10.193Z,15.63
2022-09-10T22:46:39.860Z,15.20
2022-09-10T22:49:07.492Z,14.55
2022-09-10T22:51:36.816Z,15.77
2022-09-10T22:54:05.139Z,17.27
2022-09-10T22:56:32.819Z,14.95
2022-09-10T22:59:00.332Z,15.73
2022-09-10T23:01:34.055Z,15.32
2022-09-10T23:04:02.118Z,15.98
2022-09-10T23:06:32.132Z,14.65
2022-09-10T23:09:17.769Z,23.80
2022-09-10T23:11:45.590Z,24.98
2022-09-10T23:14:19.155Z,28.67
2022-09-10T23:16:48.677Z,29.50
2022-09-10T23:19:21.728Z,29.65
2022-09-10T23:21:51.265Z,27.23
2022-09-10T23:24:22.177Z,26.40
2022-09-10T23:26:49.230Z,24.90
2022-09-10T23:29:23.051Z,24.90
2022-09-10T23:31:53.455Z,22.50
2022-09-10T23:34:21.050Z,26.10
2022-09-10T23:36:49.362Z,27.38
2022-09-10T23:39:25.400Z,30.45
2022-09-10T23:41:55.013Z,32.97
2022-09-10T23:44:21.879Z,34.75
2022-09-10T23:46:49.146Z,34.33
2022-09-10T23:49:16.594Z,35.72
2022-09-10T23:51:43.682Z,40.80
2022-09-10T23:54:11.503Z,40.72
2022-09-10T23:56:39.611Z,42.60
2022-09-10T23:59:06.488Z,46.00
